createdAt,value
2023-03-22T00:00:58.577Z,100383.59
2023-03-22T00:03:26.316Z,100378.94
2023-03-22T00:05:59.436Z,100379.94
2023-03-22T00:08:27.097Z,100375.59
2023-03-22T00:10:54.723Z,100376.59
2023-03-22T00:13:22.456Z,100365.28
2023-03-22T00:15:50.204Z,100373.94
2023-03-22T00:18:19.054Z,100370.28
2023-03-22T00:20:50.267Z,100353.66
2023-03-22T00:23:19.736Z,100369.09
2023-03-22T00:25:48.571Z,100365.97
2023-03-22T00:28:17.248Z,100362.94
2023-03-22T00:30:51.797Z,100364.13
2023-03-22T00:33:19.500Z,100358.13
2023-03-22T00:35:50.157Z,100357.63
2023-03-22T00:38:20.625Z,100354.97
2023-03-22T00:40:49.611Z,100359.66
2023-03-22T00:43:17.563Z,100374.13
2023-03-22T00:45:45.422Z,100352.69
2023-03-22T00:48:13.244Z,100346.06
2023-03-22T00:50:41.705Z,100350.03
2023-03-22T00:53:09.360Z,100349.22
2023-03-22T00:55:38.361Z,100350.19
2023-03-22T00:58:06.031Z,100339.38
2023-03-22T01:00:33.773Z,100332.06
2023-03-22T01:03:04.078Z,100335.72
2023-03-22T01:05:33.249Z,100328.06
2023-03-22T01:08:02.717Z,100329.75
2023-03-22T01:10:30.384Z,100324.59
2023-03-22T01:12:59.503Z,100325.78
2023-03-22T01:15:27.476Z,100326.09
2023-03-22T01:17:55.159Z,100323.06
2023-03-22T01:20:22.873Z,100312.41
2023-03-22T01:22:50.516Z,100316.75
2023-03-22T01:25:18.731Z,100311.13
2023-03-22T01:27:46.420Z,100309.63
2023-03-22T01:30:16.099Z,100306.13
2023-03-22T01:32:43.972Z,100310.28
2023-03-22T01:35:11.987Z,100302.47
2023-03-22T01:37:39.681Z,100310.44
2023-03-22T01:40:08.782Z,100307.09
2023-03-22T01:42:36.397Z,100301.41
2023-03-22T01:45:37.467Z,100301.41
2023-03-22T01:48:10.541Z,100312.75
2023-03-22T01:50:42.467Z,100310.72
2023-03-22T01:53:13.756Z,100306.09
2023-03-22T01:55:42.405Z,100308.06
2023-03-22T01:58:10.338Z,100302.59
2023-03-22T02:00:39.545Z,100297.78
2023-03-22T02:03:07.630Z,100299.44
2023-03-22T02:05:36.899Z,100291.09
2023-03-22T02:08:05.522Z,100298.06
2023-03-22T02:10:33.215Z,100308.19
2023-03-22T02:13:30.259Z,100303.09
2023-03-22T02:16:10.108Z,100307.09
2023-03-22T02:18:50.044Z,100306.09
2023-03-22T02:21:39.832Z,100297.44
2023-03-22T02:24:45.313Z,100292.13
2023-03-22T02:27:40.090Z,100288.81
2023-03-22T02:30:24.896Z,100283.50
2023-03-22T02:33:32.038Z,100283.69
2023-03-22T02:36:22.319Z,100290.50
2023-03-22T02:39:12.522Z,100293.47
2023-03-22T02:42:05.062Z,100287.00
2023-03-22T02:44:41.449Z,100282.16
2023-03-22T02:47:16.982Z,100284.00
2023-03-22T02:49:51.110Z,100285.88
2023-03-22T02:52:26.265Z,100277.53
2023-03-22T02:55:02.179Z,100277.22
2023-03-22T02:57:34.479Z,100275.53
2023-03-22T03:00:08.039Z,100273.72
2023-03-22T03:02:36.523Z,100274.53
2023-03-22T03:05:04.871Z,100271.53
2023-03-22T03:07:32.731Z,100267.19
2023-03-22T03:10:02.023Z,100270.53
2023-03-22T03:12:30.287Z,100271.53
2023-03-22T03:14:58.377Z,100263.22
2023-03-22T03:17:48.556Z,100274.69
2023-03-22T03:20:30.173Z,100263.22
2023-03-22T03:23:15.511Z,100261.03
2023-03-22T03:25:50.069Z,100259.56
2023-03-22T03:28:30.415Z,100254.88
2023-03-22T03:31:02.065Z,100256.22
2023-03-22T03:33:34.378Z,100250.38
2023-03-22T03:36:06.239Z,100248.56
2023-03-22T03:38:37.365Z,100255.38
2023-03-22T03:41:11.018Z,100252.50
2023-03-22T03:43:40.445Z,100245.34
2023-03-22T03:46:09.602Z,100247.84
2023-03-22T03:48:39.746Z,100248.34
2023-03-22T03:51:08.092Z,100243.66
2023-03-22T03:53:35.788Z,100247.91
2023-03-22T03:56:03.554Z,100253.06
2023-03-22T03:58:32.593Z,100254.16
2023-03-22T04:01:00.427Z,100244.69
2023-03-22T04:03:28.091Z,100248.66
2023-03-22T04:05:55.946Z,100246.31
2023-03-22T04:08:23.677Z,100245.47
2023-03-22T04:10:52.094Z,100247.00
2023-03-22T04:13:21.473Z,100239.06
2023-03-22T04:15:53.858Z,100235.91
2023-03-22T04:18:21.984Z,100239.06
2023-03-22T04:20:53.421Z,100236.25
2023-03-22T04:23:22.646Z,100233.72
2023-03-22T04:25:50.864Z,100225.56
2023-03-22T04:28:19.770Z,100222.13
2023-03-22T04:30:51.015Z,100225.25
2023-03-22T04:33:22.727Z,100215.34
2023-03-22T04:35:56.614Z,100207.50
2023-03-22T04:38:25.159Z,100216.13
2023-03-22T04:40:52.904Z,100209.81
2023-03-22T04:43:22.964Z,100218.25
2023-03-22T04:45:50.846Z,100208.59
2023-03-22T04:48:22.288Z,100214.44
2023-03-22T04:50:53.285Z,100211.09
2023-03-22T04:53:27.108Z,100207.44
2023-03-22T04:55:56.865Z,100202.28
2023-03-22T04:58:25.141Z,100204.47
2023-03-22T05:00:53.801Z,100204.41
2023-03-22T05:03:23.697Z,100216.66
2023-03-22T05:05:52.639Z,100220.91
2023-03-22T05:08:21.088Z,100217.28
2023-03-22T05:10:48.968Z,100221.91
2023-03-22T05:13:16.639Z,100224.25
2023-03-22T05:15:44.515Z,100227.88
2023-03-22T05:18:14.398Z,100225.56
2023-03-22T05:20:43.904Z,100225.03
2023-03-22T05:23:11.655Z,100226.81
2023-03-22T05:25:39.340Z,100230.94
2023-03-22T05:28:07.362Z,100229.75
2023-03-22T05:30:35.158Z,100234.25
2023-03-22T05:33:05.045Z,100235.41
2023-03-22T05:35:34.660Z,100239.03
2023-03-22T05:38:04.200Z,100237.06
2023-03-22T05:40:32.165Z,100242.25
2023-03-22T05:42:59.953Z,100245.59
2023-03-22T05:45:28.050Z,100247.41
2023-03-22T05:47:55.865Z,100240.81
2023-03-22T05:50:24.565Z,100245.19
2023-03-22T05:52:53.412Z,100248.81
2023-03-22T05:55:23.240Z,100243.69
2023-03-22T05:57:52.704Z,100242.56
2023-03-22T06:00:21.886Z,100231.56
2023-03-22T06:02:52.234Z,100237.16
2023-03-22T06:05:21.121Z,100245.22
2023-03-22T06:07:49.108Z,100240.28
2023-03-22T06:10:17.716Z,100242.72
2023-03-22T06:12:46.832Z,100241.63
2023-03-22T06:15:14.570Z,100233.78
2023-03-22T06:17:43.012Z,100233.09
2023-03-22T06:20:13.249Z,100224.97
2023-03-22T06:22:41.488Z,100222.78
2023-03-22T06:25:10.981Z,100233.88
2023-03-22T06:27:39.162Z,100245.44
2023-03-22T06:30:10.430Z,100248.41
2023-03-22T06:32:38.211Z,100251.75
2023-03-22T06:35:06.865Z,100250.47
2023-03-22T06:37:34.626Z,100247.81
2023-03-22T06:40:02.329Z,100255.75
2023-03-22T06:42:30.942Z,100251.81
2023-03-22T06:44:58.703Z,100252.50
2023-03-22T06:47:27.793Z,100253.69
2023-03-22T06:49:55.557Z,100257.03
2023-03-22T06:52:23.438Z,100261.53
2023-03-22T06:54:51.250Z,100256.44
2023-03-22T06:57:19.374Z,100260.06
2023-03-22T06:59:47.105Z,100261.09
2023-03-22T07:02:14.974Z,100257.47
2023-03-22T07:04:44.738Z,100264.09
2023-03-22T07:07:12.596Z,100265.47
2023-03-22T07:09:40.682Z,100267.53
2023-03-22T07:12:08.631Z,100263.56
2023-03-22T07:14:36.900Z,100269.72
2023-03-22T07:17:04.721Z,100263.47
2023-03-22T07:19:32.542Z,100268.59
2023-03-22T07:22:01.693Z,100263.69
2023-03-22T07:24:29.359Z,100269.88
2023-03-22T07:26:57.302Z,100272.44
2023-03-22T07:29:24.997Z,100269.00
2023-03-22T07:31:52.794Z,100265.53
2023-03-22T07:34:20.641Z,100267.19
2023-03-22T07:36:48.417Z,100262.72
2023-03-22T07:39:17.533Z,100264.56
2023-03-22T07:41:45.413Z,100257.09
2023-03-22T07:44:18.026Z,100260.25
2023-03-22T07:46:46.929Z,100262.75
2023-03-22T07:49:15.602Z,100254.25
2023-03-22T07:51:43.479Z,100254.75
2023-03-22T07:54:14.014Z,100249.56
2023-03-22T07:56:48.374Z,100253.06
2023-03-22T07:59:16.691Z,100255.69
2023-03-22T08:01:44.710Z,100243.97
2023-03-22T08:04:12.504Z,100248.75
2023-03-22T08:06:42.738Z,100245.94
2023-03-22T08:09:10.455Z,100247.97
2023-03-22T08:11:38.209Z,100253.22
2023-03-22T08:14:07.509Z,100244.66
2023-03-22T08:16:35.352Z,100240.50
2023-03-22T08:19:03.257Z,100247.97
2023-03-22T08:21:31.463Z,100251.31
2023-03-22T08:23:59.253Z,100245.59
2023-03-22T08:26:27.310Z,100244.00
2023-03-22T08:28:55.093Z,100234.16
2023-03-22T08:31:24.385Z,100237.22
2023-03-22T08:33:52.083Z,100232.69
2023-03-22T08:36:22.708Z,100238.72
2023-03-22T08:38:50.636Z,100238.50
2023-03-22T08:41:18.399Z,100236.06
2023-03-22T08:43:46.083Z,100228.94
2023-03-22T08:46:13.895Z,100230.66
2023-03-22T08:48:50.496Z,100229.78
2023-03-22T08:51:19.310Z,100230.88
2023-03-22T08:53:47.284Z,100233.78
2023-03-22T08:56:16.596Z,100233.63
2023-03-22T08:58:46.668Z,100220.31
2023-03-22T09:01:15.195Z,100221.41
2023-03-22T09:03:44.842Z,100215.16
2023-03-22T09:06:12.589Z,100219.47
2023-03-22T09:08:41.283Z,100208.59
2023-03-22T09:11:10.764Z,100212.13
2023-03-22T09:13:38.941Z,100202.78
2023-03-22T09:16:09.439Z,100200.72
2023-03-22T09:18:37.834Z,100192.13
2023-03-22T09:21:08.511Z,100184.69
2023-03-22T09:23:37.902Z,100193.28
2023-03-22T09:26:11.588Z,100176.81
2023-03-22T09:28:39.345Z,100177.28
2023-03-22T09:31:10.394Z,100174.19
2023-03-22T09:33:41.432Z,100187.50
2023-03-22T09:36:12.079Z,100185.97
2023-03-22T09:38:41.340Z,100179.81
2023-03-22T09:41:15.917Z,100180.88
2023-03-22T09:43:47.729Z,100174.41
2023-03-22T09:46:18.803Z,100179.16
2023-03-22T09:48:49.450Z,100158.00
2023-03-22T09:51:30.150Z,100165.41
2023-03-22T09:53:58.376Z,100153.44
2023-03-22T09:56:29.080Z,100161.13
2023-03-22T09:59:05.668Z,100155.59
2023-03-22T10:01:44.425Z,100150.72
2023-03-22T10:04:32.562Z,100144.59
2023-03-22T10:07:11.233Z,100132.56
2023-03-22T10:09:50.618Z,100134.81
2023-03-22T10:12:26.272Z,100129.69
2023-03-22T10:15:04.643Z,100126.56
2023-03-22T10:17:33.139Z,100122.34
2023-03-22T10:20:06.223Z,100128.94
2023-03-22T10:22:39.714Z,100121.88
2023-03-22T10:25:09.429Z,100122.22
2023-03-22T10:27:38.543Z,100107.78
2023-03-22T10:30:19.451Z,100112.13
2023-03-22T10:32:57.850Z,100119.16
2023-03-22T10:35:26.234Z,100115.53
2023-03-22T10:37:58.741Z,100111.66
2023-03-22T10:40:29.975Z,100111.97
2023-03-22T10:43:03.465Z,100096.81
2023-03-22T10:45:47.301Z,100116.25
2023-03-22T10:48:23.892Z,100107.84
2023-03-22T10:50:55.685Z,100109.06
2023-03-22T10:53:34.213Z,100106.63
2023-03-22T10:56:02.030Z,100101.09
2023-03-22T10:58:31.769Z,100094.66
2023-03-22T11:01:01.432Z,100097.59
2023-03-22T11:03:32.093Z,100106.84
2023-03-22T11:06:06.662Z,100104.44
2023-03-22T11:08:42.765Z,100108.22
2023-03-22T11:11:17.869Z,100098.16
2023-03-22T11:13:52.236Z,100099.13
2023-03-22T11:16:20.303Z,100081.38
2023-03-22T11:18:48.432Z,100083.25
2023-03-22T11:21:17.996Z,100074.59
2023-03-22T11:23:55.041Z,100072.94
2023-03-22T11:26:35.739Z,100071.69
2023-03-22T11:29:12.935Z,100070.03
2023-03-22T11:31:55.808Z,100062.00
2023-03-22T11:34:27.138Z,100069.16
2023-03-22T11:36:58.166Z,100050.22
2023-03-22T11:39:29.311Z,100036.50
2023-03-22T11:42:03.901Z,100052.16
2023-03-22T11:44:37.975Z,100048.09
2023-03-22T11:47:09.038Z,100043.72
2023-03-22T11:49:43.829Z,100042.13
2023-03-22T11:52:17.324Z,100038.06
2023-03-22T11:54:48.983Z,100044.22
2023-03-22T11:57:20.422Z,100042.72
2023-03-22T11:59:54.031Z,100043.31
2023-03-22T12:02:26.640Z,100037.47
2023-03-22T12:05:01.739Z,100044.19
2023-03-22T12:07:31.869Z,100029.81
2023-03-22T12:10:06.450Z,100023.88
2023-03-22T12:12:38.423Z,100021.97
2023-03-22T12:15:09.393Z,100023.41
2023-03-22T12:17:42.629Z,100017.16
2023-03-22T12:20:19.477Z,100005.75
2023-03-22T12:22:52.728Z,100009.16
2023-03-22T12:25:28.383Z,100015.25
2023-03-22T12:27:59.343Z,100004.94
2023-03-22T12:30:28.719Z,100005.59
2023-03-22T12:33:02.727Z,99994.69
2023-03-22T12:35:34.383Z,99984.72
2023-03-22T12:38:10.282Z,100004.66
2023-03-22T12:40:42.348Z,100006.78
2023-03-22T12:43:17.927Z,99995.13
2023-03-22T12:45:50.047Z,99998.88
2023-03-22T12:48:21.750Z,99998.75
2023-03-22T12:50:53.948Z,99992.84
2023-03-22T12:53:23.897Z,99992.88
2023-03-22T12:55:54.775Z,99993.81
2023-03-22T12:58:24.861Z,99993.56
2023-03-22T13:00:57.971Z,99989.34
2023-03-22T13:03:28.795Z,99989.50
2023-03-22T13:06:08.741Z,99985.06
2023-03-22T13:09:15.923Z,99985.03
2023-03-22T13:11:46.679Z,99982.84
2023-03-22T13:14:56.092Z,99988.56
2023-03-22T13:17:42.906Z,99980.63
2023-03-22T13:20:30.886Z,99967.38
2023-03-22T13:23:11.896Z,99972.19
2023-03-22T13:25:44.707Z,99972.66
2023-03-22T13:28:27.089Z,99979.22
2023-03-22T13:30:56.764Z,99971.97
2023-03-22T13:33:28.698Z,99970.16
2023-03-22T13:35:59.063Z,99963.84
2023-03-22T13:38:29.650Z,99961.03
2023-03-22T13:41:02.740Z,99958.47
2023-03-22T13:43:34.236Z,99966.66
2023-03-22T13:46:44.094Z,99958.00
2023-03-22T13:49:47.681Z,99955.66
2023-03-22T13:52:27.025Z,99954.16
2023-03-22T13:54:58.382Z,99956.47
2023-03-22T13:57:49.182Z,99949.06
2023-03-22T14:00:36.063Z,99946.59
2023-03-22T14:03:12.769Z,99943.69
2023-03-22T14:05:40.998Z,99943.19
2023-03-22T14:08:20.622Z,99949.31
2023-03-22T14:10:53.716Z,99951.94
2023-03-22T14:13:30.657Z,99942.31
2023-03-22T14:16:07.638Z,99950.25
2023-03-22T14:18:41.007Z,99955.63
2023-03-22T14:21:14.167Z,99938.34
